Alma, New York
Current Conditions -  °F | °C
As of 7:56 PM on Saturday 25 Oct 2014 (Local Time) from KELZ Reporting Station
Few Clouds Few Clouds  
Wind Chill: 53°   Ceiling: Unl
Heat Index: 53°   Visibility: 10mi
Dew Point: 43°   Wind: 16mph
Humidity: 69%   Direction: 290°WNW
Pressure: 29.68"   Gusts: 25mph
Location:  42.01°N, 78.06°W
Report Text: KELZ 252356Z AUTO 29014G22KT 10SM FEW035 12/06 A2968 RMK AO2 PK WND 29029/2303 SLP054 T01170061 10172 20117 53009
Loading
Personal Weather Stations






























Interactive Weather Map New forecast layout! Learn more

10-Day Weather Forecast

Advertisements
Track Severe Weather on mobile